createdAt,value
2018-11-01T00:00:02.002Z,1.53
2018-11-01T00:02:30.094Z,2.23
2018-11-01T00:04:58.179Z,3.87
2018-11-01T00:07:26.244Z,3.00
2018-11-01T00:09:54.306Z,1.65
2018-11-01T00:12:22.345Z,2.50
2018-11-01T00:14:50.435Z,3.30
2018-11-01T00:17:18.498Z,1.83
2018-11-01T00:19:46.557Z,2.57
2018-11-01T00:22:14.583Z,2.80
2018-11-01T00:24:42.640Z,2.40
2018-11-01T00:27:10.678Z,1.90
2018-11-01T00:29:38.744Z,2.40
2018-11-01T00:32:06.835Z,1.70
2018-11-01T00:34:34.942Z,3.93
2018-11-01T00:37:02.996Z,3.23
2018-11-01T00:39:31.038Z,1.50
2018-11-01T00:41:59.141Z,1.70
2018-11-01T00:44:27.184Z,2.40
2018-11-01T00:46:55.254Z,2.03
2018-11-01T00:49:23.409Z,6.33
2018-11-01T00:51:51.478Z,3.87
2018-11-01T00:54:19.511Z,2.90
2018-11-01T00:56:47.678Z,1.83
2018-11-01T00:59:15.707Z,2.27
2018-11-01T01:01:43.790Z,1.70
2018-11-01T01:04:11.833Z,2.30
2018-11-01T01:06:39.911Z,1.80
2018-11-01T01:09:10.876Z,2.43
2018-11-01T01:11:39.170Z,2.50
2018-11-01T01:14:07.663Z,4.33
2018-11-01T01:16:35.850Z,1.50
2018-11-01T01:19:04.247Z,1.83
2018-11-01T01:21:32.228Z,2.50
2018-11-01T01:24:00.319Z,2.13
2018-11-01T01:26:28.391Z,3.60
2018-11-01T01:28:57.382Z,1.40
2018-11-01T01:31:25.462Z,1.37
2018-11-01T01:33:53.653Z,2.08
2018-11-01T01:36:21.764Z,1.67
2018-11-01T01:38:49.793Z,1.50
2018-11-01T01:41:17.872Z,1.90
2018-11-01T01:43:45.935Z,1.93
2018-11-01T01:46:14.096Z,2.40
2018-11-01T01:48:42.133Z,1.65
2018-11-01T01:51:10.211Z,2.40
2018-11-01T01:53:38.258Z,1.50
2018-11-01T01:56:12.135Z,2.73
2018-11-01T01:58:40.255Z,2.20
2018-11-01T02:01:08.421Z,1.47
2018-11-01T02:03:37.135Z,2.30
2018-11-01T02:06:05.310Z,1.63
2018-11-01T02:08:33.436Z,1.60
2018-11-01T02:11:01.630Z,3.97
2018-11-01T02:13:29.803Z,1.63
2018-11-01T02:15:57.993Z,2.00
2018-11-01T02:18:26.158Z,1.47
2018-11-01T02:20:54.230Z,1.77
2018-11-01T02:23:22.329Z,1.40
2018-11-01T02:25:50.460Z,1.73
2018-11-01T02:28:19.142Z,1.93
2018-11-01T02:30:47.295Z,1.93
2018-11-01T02:33:15.342Z,2.77
2018-11-01T02:35:43.440Z,1.40
2018-11-01T02:38:11.609Z,1.97
2018-11-01T02:40:39.572Z,1.65
2018-11-01T02:43:07.655Z,1.83
2018-11-01T02:45:35.708Z,1.90
2018-11-01T02:48:03.756Z,1.50
2018-11-01T02:50:31.837Z,2.30
2018-11-01T02:52:59.884Z,5.23
2018-11-01T02:55:27.976Z,2.03
2018-11-01T02:57:56.044Z,2.87
2018-11-01T03:00:24.129Z,3.53
2018-11-01T03:02:52.185Z,1.67
2018-11-01T03:05:20.264Z,1.75
2018-11-01T03:07:48.332Z,1.47
2018-11-01T03:10:16.402Z,6.10
2018-11-01T03:12:44.495Z,1.50
2018-11-01T03:15:13.659Z,1.80
2018-11-01T03:17:42.627Z,1.57
2018-11-01T03:20:11.533Z,1.90
2018-11-01T03:22:39.608Z,1.90
2018-11-01T03:25:08.225Z,2.50
2018-11-01T03:27:36.349Z,1.67
2018-11-01T03:30:04.953Z,2.70
2018-11-01T03:32:33.052Z,5.00
2018-11-01T03:35:01.229Z,2.03
2018-11-01T03:37:29.297Z,1.93
2018-11-01T03:39:57.398Z,1.43
2018-11-01T03:42:25.484Z,1.30
2018-11-01T03:44:53.592Z,1.63
2018-11-01T03:47:21.708Z,1.20
2018-11-01T03:49:49.784Z,1.30
2018-11-01T03:52:17.866Z,1.13
2018-11-01T03:54:45.953Z,2.00
2018-11-01T03:57:14.036Z,2.55
2018-11-01T03:59:42.140Z,3.50
2018-11-01T04:02:10.213Z,1.37
2018-11-01T04:04:38.300Z,1.37
2018-11-01T04:07:06.636Z,1.70
2018-11-01T04:09:34.700Z,1.30
2018-11-01T04:12:02.776Z,1.42
2018-11-01T04:14:30.883Z,1.43
2018-11-01T04:16:59.047Z,2.53
2018-11-01T04:19:27.057Z,1.40
2018-11-01T04:22:03.593Z,1.63
2018-11-01T04:24:31.938Z,2.00
2018-11-01T04:27:00.058Z,1.17
2018-11-01T04:29:28.117Z,2.07
2018-11-01T04:31:56.172Z,1.97
2018-11-01T04:34:24.264Z,1.60
2018-11-01T04:36:52.368Z,4.13
2018-11-01T04:39:20.441Z,1.57
2018-11-01T04:41:48.504Z,1.63
2018-11-01T04:44:16.564Z,1.20
2018-11-01T04:46:44.693Z,1.97
2018-11-01T04:49:12.728Z,1.37
2018-11-01T04:51:40.779Z,1.23
2018-11-01T04:54:08.836Z,1.20
2018-11-01T04:56:36.892Z,1.20
2018-11-01T04:59:05.240Z,0.97
2018-11-01T05:01:33.308Z,1.33
2018-11-01T05:04:01.373Z,1.65
2018-11-01T05:06:29.425Z,2.80
2018-11-01T05:08:57.488Z,1.70
2018-11-01T05:11:25.545Z,1.67
2018-11-01T05:13:53.600Z,1.20
2018-11-01T05:16:21.647Z,2.00
2018-11-01T05:18:49.727Z,1.35
2018-11-01T05:21:17.788Z,2.10
2018-11-01T05:23:45.868Z,1.10
2018-11-01T05:26:13.954Z,1.00
2018-11-01T05:28:42.070Z,1.10
2018-11-01T05:31:10.148Z,1.60
2018-11-01T05:33:38.230Z,1.40
2018-11-01T05:36:06.509Z,1.57
2018-11-01T05:38:34.588Z,1.27
2018-11-01T05:41:02.676Z,1.10
2018-11-01T05:43:30.764Z,1.20
2018-11-01T05:45:59.208Z,1.35
2018-11-01T05:48:27.325Z,1.10
2018-11-01T05:50:55.385Z,1.30
2018-11-01T05:53:23.544Z,1.80
2018-11-01T05:55:51.672Z,1.13
2018-11-01T05:58:19.747Z,0.90
2018-11-01T06:00:47.829Z,1.27
2018-11-01T06:03:15.920Z,2.12
2018-11-01T06:05:44.083Z,2.43
2018-11-01T06:08:28.173Z,1.70
2018-11-01T06:10:56.361Z,4.87
2018-11-01T06:13:24.449Z,1.33
2018-11-01T06:15:52.642Z,2.55
2018-11-01T06:18:20.969Z,1.30
2018-11-01T06:20:49.405Z,1.17
2018-11-01T06:23:17.662Z,2.42
2018-11-01T06:25:45.883Z,2.53
2018-11-01T06:28:13.986Z,1.67
2018-11-01T06:30:42.048Z,1.20
2018-11-01T06:33:10.132Z,1.87
2018-11-01T06:35:39.988Z,1.57
2018-11-01T06:38:08.101Z,1.57
2018-11-01T06:40:36.192Z,4.37
2018-11-01T06:43:04.316Z,120.97
2018-11-01T06:45:32.392Z,44.67
2018-11-01T06:48:00.491Z,24.02
2018-11-01T06:50:28.549Z,19.10
2018-11-01T06:52:56.652Z,10.03
2018-11-01T06:55:24.740Z,7.37
2018-11-01T06:57:52.956Z,7.25
2018-11-01T07:00:21.256Z,7.30
2018-11-01T07:02:49.536Z,5.83
2018-11-01T07:05:17.759Z,5.80
2018-11-01T07:07:46.734Z,6.00
2018-11-01T07:10:15.944Z,4.77
2018-11-01T07:12:44.461Z,2.15
2018-11-01T07:15:14.083Z,5.17
2018-11-01T07:17:42.723Z,2.97
2018-11-01T07:20:11.996Z,6.17
2018-11-01T07:22:40.683Z,6.47
2018-11-01T07:25:10.455Z,1.47
2018-11-01T07:27:38.536Z,10.57
2018-11-01T07:30:09.753Z,2.30
2018-11-01T07:32:38.016Z,4.33
2018-11-01T07:35:06.504Z,5.43
2018-11-01T07:37:34.793Z,8.00
2018-11-01T07:40:02.930Z,3.20
2018-11-01T07:42:31.233Z,1.93
2018-11-01T07:44:59.350Z,9.03
2018-11-01T07:47:27.424Z,7.63
2018-11-01T07:49:55.512Z,6.77
2018-11-01T07:52:24.077Z,5.65
2018-11-01T07:54:52.132Z,1.87
2018-11-01T07:57:20.184Z,3.23
2018-11-01T07:59:48.265Z,2.50
2018-11-01T08:02:16.328Z,2.40
2018-11-01T08:04:44.413Z,2.07
2018-11-01T08:07:12.484Z,3.30
2018-11-01T08:09:40.572Z,2.03
2018-11-01T08:12:08.622Z,1.95
2018-11-01T08:14:36.729Z,2.20
2018-11-01T08:17:05.253Z,3.77
2018-11-01T08:19:33.345Z,1.83
2018-11-01T08:22:01.364Z,6.67
2018-11-01T08:24:29.448Z,3.70
2018-11-01T08:26:57.499Z,2.40
2018-11-01T08:29:25.576Z,3.20
2018-11-01T08:31:53.664Z,58.30
2018-11-01T08:34:21.764Z,183.53
2018-11-01T08:36:49.888Z,72.43
2018-11-01T08:39:17.991Z,60.20
2018-11-01T08:41:46.317Z,58.00
2018-11-01T08:44:14.433Z,53.80
2018-11-01T08:46:43.400Z,82.57
2018-11-01T08:49:11.518Z,132.93
2018-11-01T08:51:39.613Z,92.47
2018-11-01T08:54:07.704Z,73.23
2018-11-01T08:56:35.976Z,65.90
2018-11-01T08:59:04.100Z,57.93
2018-11-01T09:01:32.263Z,50.03
2018-11-01T09:04:00.421Z,41.70
2018-11-01T09:06:29.288Z,35.58
2018-11-01T09:08:57.397Z,38.80
2018-11-01T09:11:25.518Z,36.07
2018-11-01T09:13:53.628Z,34.63
2018-11-01T09:16:21.773Z,33.60
2018-11-01T09:18:49.876Z,26.07
2018-11-01T09:21:17.944Z,30.67
2018-11-01T09:23:46.048Z,30.60
2018-11-01T09:26:14.155Z,26.30
2018-11-01T09:28:42.304Z,26.37
2018-11-01T09:31:10.380Z,32.83
2018-11-01T09:33:38.433Z,23.47
2018-11-01T09:36:06.492Z,24.13
2018-11-01T09:38:34.613Z,22.50
2018-11-01T09:41:02.732Z,27.13
2018-11-01T09:43:30.828Z,21.47
2018-11-01T09:45:59.047Z,24.27
2018-11-01T09:48:27.095Z,18.70
2018-11-01T09:50:55.168Z,19.53
2018-11-01T09:53:23.273Z,17.03
2018-11-01T09:55:51.964Z,21.40
2018-11-01T09:58:19.899Z,18.87
2018-11-01T10:00:47.985Z,18.13
2018-11-01T10:03:16.045Z,17.57
2018-11-01T10:05:44.132Z,18.87
2018-11-01T10:08:12.229Z,17.80
2018-11-01T10:10:40.392Z,15.70
2018-11-01T10:13:08.553Z,19.47
2018-11-01T10:15:36.685Z,16.60
2018-11-01T10:18:05.351Z,20.97
2018-11-01T10:20:32.911Z,16.10
2018-11-01T10:23:01.079Z,16.50
2018-11-01T10:25:29.271Z,18.33
2018-11-01T10:27:57.259Z,17.57
2018-11-01T10:30:25.358Z,18.27
2018-11-01T10:32:53.420Z,14.40
2018-11-01T10:35:21.552Z,14.93
2018-11-01T10:37:49.666Z,16.37
2018-11-01T10:40:19.051Z,14.67
2018-11-01T10:42:47.124Z,14.70
2018-11-01T10:45:15.365Z,13.07
2018-11-01T10:47:43.793Z,16.43
2018-11-01T10:50:16.228Z,15.93
2018-11-01T10:52:44.335Z,13.60
2018-11-01T10:55:12.937Z,12.63
2018-11-01T10:57:41.098Z,13.20
2018-11-01T11:00:15.891Z,13.00
2018-11-01T11:02:46.145Z,10.67
2018-11-01T11:05:14.901Z,11.33
2018-11-01T11:07:43.067Z,15.30
2018-11-01T11:10:11.177Z,12.80
2018-11-01T11:12:39.344Z,11.33
2018-11-01T11:15:07.980Z,12.23
2018-11-01T11:17:36.025Z,11.97
2018-11-01T11:20:04.328Z,10.07
2018-11-01T11:22:32.440Z,8.57
2018-11-01T11:25:00.532Z,8.83
2018-11-01T11:27:28.588Z,10.30
2018-11-01T11:29:56.759Z,10.50
2018-11-01T11:32:24.899Z,9.50
2018-11-01T11:34:52.985Z,7.60
2018-11-01T11:37:21.111Z,8.97
2018-11-01T11:39:49.411Z,8.03
2018-11-01T11:42:17.352Z,10.07
2018-11-01T11:44:45.448Z,11.53
2018-11-01T11:47:13.585Z,11.33
2018-11-01T11:49:41.652Z,11.77
2018-11-01T11:52:09.744Z,9.30
2018-11-01T11:54:37.816Z,8.53
2018-11-01T11:57:06.043Z,8.13
2018-11-01T11:59:34.028Z,8.28
2018-11-01T12:02:02.124Z,11.50
2018-11-01T12:04:30.188Z,6.80
2018-11-01T12:06:58.412Z,7.83
2018-11-01T12:09:26.844Z,9.28
2018-11-01T12:11:55.113Z,8.70
2018-11-01T12:14:23.373Z,6.40
2018-11-01T12:16:51.459Z,12.18
2018-11-01T12:19:19.527Z,9.03
2018-11-01T12:21:47.614Z,6.30
2018-11-01T12:24:15.693Z,12.70
2018-11-01T12:26:43.764Z,6.83
2018-11-01T12:29:11.832Z,12.03
2018-11-01T12:31:40.463Z,9.53
2018-11-01T12:34:08.565Z,11.57
2018-11-01T12:36:36.616Z,7.20
2018-11-01T12:39:06.618Z,7.87
2018-11-01T12:41:34.748Z,7.50
2018-11-01T12:44:02.743Z,9.75
2018-11-01T12:46:30.780Z,9.03
2018-11-01T12:48:58.848Z,6.03
2018-11-01T12:51:26.905Z,6.63
2018-11-01T12:53:55.139Z,4.93
2018-11-01T12:56:23.253Z,6.70
2018-11-01T12:58:51.240Z,9.23
2018-11-01T13:01:19.324Z,5.33
2018-11-01T13:03:47.380Z,5.07
2018-11-01T13:06:15.480Z,7.60
2018-11-01T13:08:43.533Z,10.03
2018-11-01T13:11:11.595Z,4.87
2018-11-01T13:13:39.648Z,6.40
2018-11-01T13:16:07.733Z,5.50
2018-11-01T13:18:36.791Z,6.95
2018-11-01T13:21:05.035Z,9.10
2018-11-01T13:23:33.161Z,4.07
2018-11-01T13:26:01.217Z,6.63
2018-11-01T13:28:29.260Z,5.10
2018-11-01T13:30:57.352Z,4.13
2018-11-01T13:33:25.453Z,4.93
2018-11-01T13:35:53.536Z,9.73
2018-11-01T13:38:21.700Z,5.00
2018-11-01T13:40:50.060Z,4.20
2018-11-01T13:43:17.835Z,5.93
2018-11-01T13:45:45.888Z,3.93
2018-11-01T13:48:14.169Z,5.17
2018-11-01T13:50:42.128Z,5.20
2018-11-01T13:53:10.217Z,4.47
2018-11-01T13:55:38.296Z,3.90
2018-11-01T13:58:06.354Z,6.47
2018-11-01T14:00:34.444Z,5.07
2018-11-01T14:03:02.657Z,6.10
2018-11-01T14:05:30.811Z,6.53
2018-11-01T14:07:59.041Z,3.52
2018-11-01T14:10:27.093Z,5.53
2018-11-01T14:12:55.212Z,4.10
2018-11-01T14:15:23.792Z,4.00
2018-11-01T14:17:51.379Z,4.70
2018-11-01T14:20:19.436Z,5.03
2018-11-01T14:22:47.480Z,9.03
2018-11-01T14:25:15.621Z,3.97
2018-11-01T14:27:43.742Z,5.90
2018-11-01T14:30:14.016Z,5.30
2018-11-01T14:32:42.148Z,4.23
2018-11-01T14:35:10.892Z,4.17
2018-11-01T14:37:39.006Z,6.33
2018-11-01T14:40:08.664Z,7.73
2018-11-01T14:42:36.747Z,4.00
2018-11-01T14:45:04.984Z,7.03
2018-11-01T14:47:33.076Z,4.50
2018-11-01T14:50:01.176Z,6.17
2018-11-01T14:52:29.611Z,6.97
2018-11-01T14:54:58.532Z,3.80
2018-11-01T14:57:26.481Z,7.47
2018-11-01T14:59:53.969Z,4.70
2018-11-01T15:02:21.555Z,7.45
2018-11-01T15:04:49.668Z,3.10
2018-11-01T15:07:18.597Z,4.23
2018-11-01T15:09:46.640Z,4.67
2018-11-01T15:12:14.696Z,3.10
2018-11-01T15:14:43.292Z,2.73
2018-11-01T15:17:12.088Z,3.33
2018-11-01T15:19:40.183Z,3.65
2018-11-01T15:22:08.237Z,2.83
2018-11-01T15:24:36.289Z,3.00
2018-11-01T15:27:04.352Z,3.83
2018-11-01T15:29:32.408Z,6.87
2018-11-01T15:32:03.396Z,7.20
2018-11-01T15:34:32.209Z,9.43
2018-11-01T15:37:00.411Z,3.77
2018-11-01T15:39:28.477Z,7.23
2018-11-01T15:41:56.552Z,3.30
2018-11-01T15:44:24.628Z,4.83
2018-11-01T15:46:52.729Z,3.43
2018-11-01T15:49:20.804Z,2.90
2018-11-01T15:51:48.927Z,6.70
2018-11-01T15:54:16.951Z,6.30
2018-11-01T15:56:45.090Z,18.53
2018-11-01T15:59:13.144Z,7.97
2018-11-01T16:01:41.285Z,8.75
2018-11-01T16:04:09.382Z,9.17
2018-11-01T16:06:37.413Z,6.67
2018-11-01T16:09:08.748Z,7.60
2018-11-01T16:11:36.836Z,9.47
2018-11-01T16:14:04.932Z,11.37
2018-11-01T16:16:33.020Z,7.00
2018-11-01T16:19:01.080Z,4.78
2018-11-01T16:21:29.149Z,6.93
2018-11-01T16:23:57.216Z,8.00
2018-11-01T16:26:25.279Z,5.30
2018-11-01T16:28:53.336Z,8.45
2018-11-01T16:31:21.432Z,9.67
2018-11-01T16:33:49.548Z,11.03
2018-11-01T16:36:17.675Z,6.43
2018-11-01T16:38:45.773Z,12.83
2018-11-01T16:41:13.856Z,7.93
2018-11-01T16:43:41.972Z,7.75
2018-11-01T16:46:10.073Z,9.53
2018-11-01T16:48:38.143Z,7.93
2018-11-01T16:51:06.361Z,6.80
2018-11-01T16:53:34.408Z,7.17
2018-11-01T16:56:03.073Z,10.77
2018-11-01T16:58:31.144Z,6.80
2018-11-01T17:00:59.240Z,9.90
2018-11-01T17:03:27.329Z,7.53
2018-11-01T17:05:55.392Z,5.97
2018-11-01T17:08:25.776Z,5.40
2018-11-01T17:10:53.821Z,4.92
2018-11-01T17:13:21.888Z,8.03
2018-11-01T17:15:49.945Z,5.87
2018-11-01T17:18:18.057Z,5.87
2018-11-01T17:20:46.144Z,4.80
2018-11-01T17:23:14.208Z,7.00
2018-11-01T17:25:42.340Z,5.03
2018-11-01T17:28:10.425Z,15.23
2018-11-01T17:30:38.480Z,9.60
2018-11-01T17:33:06.723Z,5.33
2018-11-01T17:35:34.775Z,6.53
2018-11-01T17:38:02.861Z,8.50
2018-11-01T17:40:30.945Z,7.20
2018-11-01T17:42:58.996Z,3.60
2018-11-01T17:45:27.075Z,10.20
2018-11-01T17:47:55.332Z,5.83
2018-11-01T17:50:23.521Z,5.12
2018-11-01T17:52:51.801Z,5.60
2018-11-01T17:55:20.052Z,3.17
2018-11-01T17:57:48.060Z,3.87
2018-11-01T18:00:16.465Z,3.92
2018-11-01T18:02:44.653Z,5.73
2018-11-01T18:05:13.019Z,3.67
2018-11-01T18:07:41.389Z,6.70
2018-11-01T18:10:10.643Z,8.10
2018-11-01T18:12:38.695Z,4.23
2018-11-01T18:15:07.341Z,9.50
2018-11-01T18:17:35.425Z,4.40
2018-11-01T18:20:03.589Z,5.53
2018-11-01T18:22:31.685Z,4.70
2018-11-01T18:24:59.775Z,8.83
2018-11-01T18:27:28.264Z,4.23
2018-11-01T18:29:56.384Z,4.53
2018-11-01T18:32:24.486Z,5.63
2018-11-01T18:34:52.565Z,7.13
2018-11-01T18:37:20.636Z,4.07
2018-11-01T18:39:48.737Z,7.10
2018-11-01T18:42:16.857Z,6.43
2018-11-01T18:44:45.324Z,5.33
2018-11-01T18:47:13.387Z,4.27
2018-11-01T18:49:41.464Z,7.30
2018-11-01T18:52:09.525Z,7.33
2018-11-01T18:54:37.691Z,5.70
2018-11-01T18:57:05.838Z,4.92
2018-11-01T18:59:33.995Z,3.00
2018-11-01T19:02:01.974Z,4.43
2018-11-01T19:04:30.038Z,4.80
2018-11-01T19:06:58.253Z,8.70
2018-11-01T19:09:26.340Z,5.70
2018-11-01T19:11:54.460Z,4.20
2018-11-01T19:14:22.626Z,12.73
2018-11-01T19:16:50.642Z,4.23
2018-11-01T19:19:18.794Z,6.60
2018-11-01T19:21:46.930Z,6.70
2018-11-01T19:24:15.011Z,6.83
2018-11-01T19:26:43.192Z,10.47
2018-11-01T19:29:11.185Z,8.13
2018-11-01T19:31:39.320Z,6.57
2018-11-01T19:34:07.766Z,4.33
2018-11-01T19:36:35.708Z,5.07
2018-11-01T19:39:05.292Z,3.90
2018-11-01T19:41:33.344Z,8.40
2018-11-01T19:44:01.429Z,2.73
2018-11-01T19:46:29.497Z,6.30
2018-11-01T19:48:57.608Z,4.63
2018-11-01T19:51:25.696Z,9.90
2018-11-01T19:53:53.893Z,8.57
2018-11-01T19:56:21.876Z,8.23
2018-11-01T19:58:50.466Z,15.70
2018-11-01T20:01:18.609Z,10.80
2018-11-01T20:03:46.744Z,7.30
2018-11-01T20:06:14.909Z,10.00
2018-11-01T20:08:43.011Z,5.97
2018-11-01T20:11:11.009Z,4.75
2018-11-01T20:13:39.060Z,4.53
2018-11-01T20:16:07.170Z,4.43
2018-11-01T20:18:35.256Z,9.83
2018-11-01T20:21:03.280Z,5.57
2018-11-01T20:23:31.344Z,5.27
2018-11-01T20:25:59.440Z,5.90
2018-11-01T20:28:27.516Z,6.20
2018-11-01T20:30:55.621Z,8.80
2018-11-01T20:33:23.740Z,9.40
2018-11-01T20:35:51.861Z,13.30
2018-11-01T20:38:20.003Z,6.63
2018-11-01T20:40:48.040Z,9.83
2018-11-01T20:43:16.172Z,9.30
2018-11-01T20:45:44.280Z,10.78
2018-11-01T20:48:12.440Z,5.40
2018-11-01T20:50:40.509Z,9.33
2018-11-01T20:53:08.580Z,7.17
2018-11-01T20:55:36.653Z,5.20
2018-11-01T20:58:04.805Z,6.90
2018-11-01T21:00:32.889Z,7.80
2018-11-01T21:03:01.094Z,8.73
2018-11-01T21:05:29.164Z,6.27
2018-11-01T21:07:57.229Z,7.47
2018-11-01T21:10:25.301Z,6.00
2018-11-01T21:12:53.801Z,8.67
2018-11-01T21:15:21.909Z,9.00
2018-11-01T21:17:50.012Z,8.60
2018-11-01T21:20:18.121Z,8.87
2018-11-01T21:22:46.188Z,4.93
2018-11-01T21:25:14.252Z,6.80
2018-11-01T21:27:42.364Z,10.37
2018-11-01T21:30:10.601Z,6.80
2018-11-01T21:32:38.733Z,8.23
2018-11-01T21:35:07.197Z,4.13
2018-11-01T21:37:35.325Z,10.40
2018-11-01T21:40:03.677Z,7.20
2018-11-01T21:42:31.752Z,5.77
2018-11-01T21:44:59.816Z,4.43
2018-11-01T21:47:27.861Z,6.80
2018-11-01T21:49:55.919Z,7.00
2018-11-01T21:52:23.989Z,2.97
2018-11-01T21:54:52.048Z,4.00
2018-11-01T21:57:20.190Z,3.63
2018-11-01T21:59:48.342Z,4.62
2018-11-01T22:02:17.208Z,5.43
2018-11-01T22:04:45.323Z,6.97
2018-11-01T22:07:13.430Z,6.00
2018-11-01T22:09:41.691Z,5.70
2018-11-01T22:12:09.841Z,6.20
2018-11-01T22:14:38.016Z,5.07
2018-11-01T22:17:06.608Z,4.97
2018-11-01T22:19:34.669Z,5.77
2018-11-01T22:22:02.815Z,4.70
2018-11-01T22:24:30.904Z,4.58
2018-11-01T22:32:01.964Z,4.40
2018-11-01T22:34:30.075Z,5.27
2018-11-01T22:36:58.141Z,3.50
2018-11-01T22:39:26.245Z,6.40
2018-11-01T22:41:54.365Z,3.93
2018-11-01T22:44:22.420Z,10.63
2018-11-01T22:46:50.601Z,5.27
2018-11-01T22:49:18.688Z,4.83
2018-11-01T22:51:46.829Z,5.10
2018-11-01T22:54:14.823Z,4.97
2018-11-01T22:56:42.976Z,4.20
2018-11-01T22:59:11.046Z,3.70
2018-11-01T23:01:39.944Z,5.03
2018-11-01T23:04:08.000Z,4.13
2018-11-01T23:06:36.043Z,4.60
2018-11-01T23:09:05.372Z,3.10
2018-11-01T23:11:33.429Z,2.80
2018-11-01T23:14:01.485Z,3.90
2018-11-01T23:16:29.544Z,4.72
2018-11-01T23:18:58.216Z,3.30
2018-11-01T23:21:26.272Z,3.67
2018-11-01T23:23:54.336Z,3.43
2018-11-01T23:26:22.478Z,4.47
2018-11-01T23:28:50.448Z,3.97
2018-11-01T23:31:18.492Z,2.70
2018-11-01T23:33:46.621Z,3.23
2018-11-01T23:36:13.893Z,3.97
2018-11-01T23:38:47.492Z,4.17
2018-11-01T23:41:20.904Z,4.23
2018-11-01T23:43:54.502Z,3.15
2018-11-01T23:46:27.993Z,3.33
2018-11-01T23:49:00.803Z,5.23
2018-11-01T23:51:28.863Z,3.50
2018-11-01T23:53:56.912Z,3.87
2018-11-01T23:56:24.989Z,3.33
2018-11-01T23:58:53.305Z,3.80
